createdAt,value
2019-01-06T00:02:40.454Z,17.98
2019-01-06T00:05:27.941Z,18.95
2019-01-06T00:08:15.428Z,20.47
2019-01-06T00:11:02.903Z,21.02
2019-01-06T00:16:29.348Z,18.90
2019-01-06T00:19:16.826Z,16.17
2019-01-06T00:22:04.308Z,18.35
2019-01-06T00:24:51.809Z,19.30
2019-01-06T00:27:39.276Z,19.17
2019-01-06T00:30:41.536Z,17.32
2019-01-06T00:33:29.023Z,19.53
2019-01-06T00:36:16.500Z,19.77
2019-01-06T00:39:03.997Z,19.77
2019-01-06T00:41:51.483Z,19.50
2019-01-06T00:44:38.976Z,21.40
2019-01-06T00:47:26.452Z,21.60
2019-01-06T00:50:13.944Z,19.50
2019-01-06T00:53:01.427Z,26.40
2019-01-06T00:55:48.908Z,19.85
2019-01-06T00:58:36.393Z,20.13
2019-01-06T01:01:23.886Z,20.33
2019-01-06T01:04:11.371Z,19.60
2019-01-06T01:06:58.877Z,19.12
2019-01-06T01:10:05.731Z,17.97
2019-01-06T01:18:21.113Z,21.40
2019-01-06T01:21:08.620Z,24.00
2019-01-06T01:23:56.133Z,24.65
2019-01-06T01:26:48.215Z,17.73
2019-01-06T01:29:32.863Z,19.60
2019-01-06T01:35:16.798Z,18.87
2019-01-06T01:38:04.288Z,23.47
2019-01-06T01:43:40.719Z,22.63
2019-01-06T01:46:28.227Z,26.23
2019-01-06T01:49:15.715Z,21.68
2019-01-06T01:52:03.207Z,24.07
2019-01-06T01:57:39.658Z,32.33
2019-01-06T02:00:48.049Z,25.75
2019-01-06T02:03:35.555Z,32.40
2019-01-06T02:09:02.011Z,32.03
2019-01-06T02:11:49.503Z,25.67
2019-01-06T02:14:36.990Z,37.53
2019-01-06T02:17:24.487Z,25.40
2019-01-06T02:20:11.975Z,28.63
2019-01-06T02:22:59.466Z,24.10
2019-01-06T02:33:54.856Z,24.05
2019-01-06T02:36:42.335Z,26.37
2019-01-06T02:39:29.827Z,22.40
2019-01-06T02:42:17.328Z,26.63
2019-01-06T02:45:04.903Z,28.37
2019-01-06T02:47:52.390Z,24.65
2019-01-06T02:50:39.926Z,32.53
2019-01-06T02:53:27.412Z,26.23
2019-01-06T02:56:14.895Z,28.67
2019-01-06T02:59:02.385Z,23.63
2019-01-06T03:04:38.812Z,25.13
2019-01-06T03:07:26.308Z,25.12
2019-01-06T03:10:13.858Z,27.65
2019-01-06T03:13:01.344Z,27.17
2019-01-06T03:18:27.780Z,24.87
2019-01-06T03:23:54.238Z,26.60
2019-01-06T03:32:09.640Z,32.33
2019-01-06T03:34:57.126Z,27.50
2019-01-06T03:37:44.594Z,23.47
2019-01-06T03:40:32.109Z,24.40
2019-01-06T03:43:19.565Z,25.40
2019-01-06T03:46:07.046Z,25.10
2019-01-06T03:48:54.540Z,27.02
2019-01-06T03:51:42.027Z,27.60
2019-01-06T03:54:29.504Z,23.30
2019-01-06T03:57:16.997Z,22.37
2019-01-06T04:00:04.485Z,18.90
2019-01-06T04:02:51.973Z,25.33
2019-01-06T04:05:39.476Z,36.17
2019-01-06T04:08:26.957Z,36.17
2019-01-06T04:11:15.211Z,53.53
2019-01-06T04:14:03.646Z,45.80
2019-01-06T04:16:51.200Z,41.50
2019-01-06T04:19:38.695Z,47.23
2019-01-06T04:27:54.102Z,47.03
2019-01-06T04:30:41.575Z,49.17
2019-01-06T04:33:29.076Z,42.43
2019-01-06T04:36:16.581Z,48.23
2019-01-06T04:39:04.051Z,39.27
2019-01-06T04:41:51.558Z,45.93
2019-01-06T04:47:28.019Z,52.25
2019-01-06T04:50:15.509Z,47.43
2019-01-06T04:55:41.952Z,55.53
2019-01-06T04:58:29.447Z,50.80
2019-01-06T05:01:16.921Z,51.93
2019-01-06T05:06:46.880Z,53.43
2019-01-06T05:09:34.382Z,52.57
2019-01-06T05:12:21.860Z,51.20
2019-01-06T05:15:09.367Z,52.50
2019-01-06T05:17:56.842Z,54.03
2019-01-06T05:20:44.335Z,51.43
2019-01-06T05:23:31.818Z,59.73
2019-01-06T05:26:19.331Z,46.87
2019-01-06T05:29:06.801Z,58.43
2019-01-06T05:31:54.303Z,55.10
2019-01-06T05:37:20.772Z,61.02
2019-01-06T05:42:58.070Z,63.85
2019-01-06T05:48:34.512Z,67.57
2019-01-06T05:54:10.977Z,51.23
2019-01-06T05:56:58.444Z,53.43
2019-01-06T05:59:45.938Z,46.98
2019-01-06T06:02:33.426Z,48.70
2019-01-06T06:05:20.922Z,46.10
2019-01-06T06:08:08.403Z,47.63
2019-01-06T06:10:55.895Z,45.23
2019-01-06T06:16:32.343Z,52.17
2019-01-06T06:19:19.809Z,66.20
2019-01-06T06:22:07.301Z,52.53
2019-01-06T06:24:54.773Z,52.77
2019-01-06T06:30:21.224Z,48.63
2019-01-06T06:33:08.697Z,59.83
2019-01-06T06:35:56.190Z,67.70
2019-01-06T06:38:43.670Z,69.43
2019-01-06T06:41:31.146Z,62.20
2019-01-06T06:49:36.547Z,67.47
2019-01-06T06:52:24.033Z,56.40
2019-01-06T06:55:11.518Z,68.27
2019-01-06T07:01:33.782Z,69.00
2019-01-06T07:04:21.458Z,55.30
2019-01-06T07:07:08.955Z,52.70
2019-01-06T07:12:45.421Z,55.07
2019-01-06T07:15:32.913Z,51.63
2019-01-06T07:18:20.405Z,60.73
2019-01-06T07:23:56.963Z,54.73
2019-01-06T07:26:44.460Z,65.75
2019-01-06T07:29:31.984Z,54.75
2019-01-06T07:37:47.382Z,54.30
2019-01-06T07:40:34.876Z,51.27
2019-01-06T07:43:22.343Z,64.10
2019-01-06T07:46:09.832Z,61.25
2019-01-06T07:48:57.308Z,74.00
2019-01-06T07:51:45.056Z,70.60
2019-01-06T07:54:32.608Z,68.47
2019-01-06T07:57:20.090Z,77.50
2019-01-06T08:00:14.963Z,104.05
2019-01-06T08:02:56.849Z,71.40
2019-01-06T08:05:44.336Z,79.63
2019-01-06T08:08:31.818Z,113.83
2019-01-06T08:11:19.314Z,93.07
2019-01-06T08:14:06.823Z,82.65
2019-01-06T08:16:54.314Z,74.77
2019-01-06T08:19:41.810Z,77.43
2019-01-06T08:25:18.257Z,77.30
2019-01-06T08:28:05.732Z,86.57
2019-01-06T08:33:32.198Z,72.93
2019-01-06T08:36:19.695Z,103.63
2019-01-06T08:39:07.174Z,68.50
2019-01-06T08:41:54.657Z,77.87
2019-01-06T08:44:42.220Z,83.20
2019-01-06T08:47:29.704Z,78.67
2019-01-06T08:50:17.213Z,80.67
2019-01-06T08:55:43.654Z,91.60
2019-01-06T08:58:31.149Z,97.53
2019-01-06T09:03:58.596Z,71.17
2019-01-06T09:06:46.082Z,76.77
2019-01-06T09:09:33.562Z,78.87
2019-01-06T09:17:48.939Z,133.00
2019-01-06T09:20:36.411Z,78.83
2019-01-06T09:26:02.883Z,106.93
2019-01-06T09:28:50.397Z,101.40
2019-01-06T09:31:37.899Z,112.40
2019-01-06T09:39:53.320Z,161.43
2019-01-06T09:42:40.814Z,148.17
2019-01-06T09:50:46.207Z,84.33
2019-01-06T09:53:33.741Z,133.03
2019-01-06T09:56:21.193Z,104.77
2019-01-06T09:59:08.683Z,92.90
2019-01-06T10:01:56.158Z,87.65
2019-01-06T10:04:43.645Z,75.20
2019-01-06T10:07:31.136Z,92.27
2019-01-06T10:10:18.626Z,93.27
2019-01-06T10:13:06.111Z,82.47
2019-01-06T10:15:53.823Z,78.90
2019-01-06T10:18:41.299Z,77.40
2019-01-06T10:21:28.802Z,79.00
2019-01-06T10:26:55.248Z,66.70
2019-01-06T10:32:21.703Z,51.83
2019-01-06T10:35:09.203Z,48.87
2019-01-06T10:37:56.685Z,45.28
2019-01-06T10:43:23.122Z,43.30
2019-01-06T10:48:49.583Z,32.93
2019-01-06T10:51:37.072Z,37.03
2019-01-06T10:57:13.511Z,38.55
2019-01-06T11:00:01.004Z,35.83
2019-01-06T11:02:48.491Z,38.47
2019-01-06T11:05:35.976Z,33.42
2019-01-06T11:08:23.462Z,32.07
2019-01-06T11:11:10.949Z,37.37
2019-01-06T11:16:40.901Z,38.77
2019-01-06T11:19:28.383Z,44.80
2019-01-06T11:25:04.814Z,42.07
2019-01-06T11:27:52.303Z,45.53
2019-01-06T11:30:39.844Z,44.43
2019-01-06T11:33:27.332Z,45.98
2019-01-06T11:36:14.816Z,52.43
2019-01-06T11:39:02.313Z,41.50
2019-01-06T11:44:28.777Z,45.97
2019-01-06T11:47:16.277Z,44.67
2019-01-06T11:50:03.788Z,44.80
2019-01-06T11:52:51.265Z,58.70
2019-01-06T11:58:17.716Z,42.03
2019-01-06T12:01:05.206Z,38.37
2019-01-06T12:03:52.691Z,26.77
2019-01-06T12:06:40.175Z,30.72
2019-01-06T12:09:27.673Z,18.47
2019-01-06T12:12:15.154Z,21.15
2019-01-06T12:15:02.655Z,18.90
2019-01-06T12:17:50.130Z,19.10
2019-01-06T12:20:37.630Z,19.23
2019-01-06T12:26:14.066Z,16.27
2019-01-06T12:29:01.555Z,17.53
2019-01-06T12:31:49.040Z,16.53
2019-01-06T12:34:36.546Z,23.38
2019-01-06T12:37:24.016Z,14.87
2019-01-06T12:40:11.489Z,18.10
2019-01-06T12:42:58.967Z,13.77
2019-01-06T12:48:25.424Z,14.90
2019-01-06T12:51:12.893Z,17.43
2019-01-06T12:54:01.176Z,17.57
2019-01-06T12:56:48.663Z,20.20
2019-01-06T12:59:36.131Z,16.67
2019-01-06T13:02:23.625Z,16.17
2019-01-06T13:05:11.102Z,12.87
2019-01-06T13:07:58.590Z,13.00
2019-01-06T13:13:25.020Z,15.30
2019-01-06T13:16:12.521Z,11.37
2019-01-06T13:21:49.021Z,11.90
2019-01-06T13:27:25.543Z,17.48
2019-01-06T13:33:01.971Z,18.50
2019-01-06T13:35:49.451Z,17.83
2019-01-06T13:38:36.940Z,19.17
2019-01-06T13:41:24.433Z,20.37
2019-01-06T13:44:11.920Z,18.50
2019-01-06T13:46:59.426Z,21.27
2019-01-06T13:49:46.909Z,22.40
2019-01-06T13:52:34.414Z,21.43
2019-01-06T13:55:21.902Z,19.50
2019-01-06T13:58:09.389Z,17.37
2019-01-06T14:03:45.849Z,18.53
2019-01-06T14:06:33.330Z,23.67
2019-01-06T14:11:59.767Z,23.13
2019-01-06T14:14:47.265Z,20.13
2019-01-06T14:20:38.518Z,14.75
2019-01-06T14:23:34.769Z,16.10
2019-01-06T14:26:22.190Z,18.93
2019-01-06T14:29:09.685Z,19.73
2019-01-06T14:31:57.180Z,18.17
2019-01-06T14:34:42.775Z,17.23
2019-01-06T14:37:30.263Z,14.60
2019-01-06T14:40:17.741Z,16.30
2019-01-06T14:43:05.230Z,16.87
2019-01-06T14:45:52.720Z,18.37
2019-01-06T14:48:40.205Z,13.83
2019-01-06T14:51:27.690Z,18.47
2019-01-06T14:54:15.171Z,15.88
2019-01-06T14:57:02.661Z,18.53
2019-01-06T15:02:29.095Z,20.07
2019-01-06T15:05:16.593Z,19.17
2019-01-06T15:08:04.088Z,21.17
2019-01-06T15:18:59.595Z,21.30
2019-01-06T15:21:47.047Z,24.23
2019-01-06T15:24:34.535Z,21.33
2019-01-06T15:27:22.020Z,25.47
2019-01-06T15:30:09.503Z,25.53
2019-01-06T15:35:45.944Z,28.20
2019-01-06T15:41:12.405Z,28.00
2019-01-06T15:44:00.181Z,24.37
2019-01-06T15:46:47.707Z,28.83
2019-01-06T15:49:35.188Z,25.00
2019-01-06T16:03:08.501Z,28.17
2019-01-06T16:05:56.001Z,34.40
2019-01-06T16:08:43.503Z,33.17
2019-01-06T16:11:30.981Z,34.45
2019-01-06T16:14:18.470Z,31.87
2019-01-06T16:17:05.958Z,29.93
2019-01-06T16:19:53.469Z,32.87
2019-01-06T16:25:29.930Z,26.03
2019-01-06T16:28:17.413Z,28.50
2019-01-06T16:31:04.940Z,27.77
2019-01-06T16:33:52.407Z,25.30
2019-01-06T16:39:18.851Z,17.90
2019-01-06T16:42:06.354Z,21.20
2019-01-06T16:47:32.812Z,14.73
2019-01-06T16:50:20.365Z,15.05
2019-01-06T16:53:07.871Z,11.68
2019-01-06T16:55:55.358Z,11.03
2019-01-06T16:58:42.840Z,9.43
2019-01-06T17:01:30.310Z,13.08
2019-01-06T17:09:45.714Z,12.88
2019-01-06T17:12:33.188Z,13.27
2019-01-06T17:15:20.677Z,10.30
2019-01-06T17:18:08.166Z,12.60
2019-01-06T17:23:34.613Z,15.40
2019-01-06T17:26:22.107Z,11.60
2019-01-06T17:29:09.611Z,11.10
2019-01-06T17:31:57.093Z,13.87
2019-01-06T17:34:44.588Z,8.30
2019-01-06T17:37:38.261Z,9.43
2019-01-06T17:40:21.312Z,9.10
2019-01-06T17:43:08.810Z,8.50
2019-01-06T17:48:45.266Z,12.30
2019-01-06T17:54:21.718Z,12.77
2019-01-06T17:57:09.190Z,14.53
2019-01-06T18:02:35.623Z,10.17
2019-01-06T18:08:31.247Z,10.20
2019-01-06T18:11:18.740Z,14.70
2019-01-06T18:14:06.239Z,10.50
2019-01-06T18:16:53.733Z,8.83
2019-01-06T18:19:41.243Z,14.65
2019-01-06T18:22:36.088Z,11.67
2019-01-06T18:25:37.287Z,11.33
2019-01-06T18:28:24.783Z,19.80
2019-01-06T18:31:12.282Z,17.37
2019-01-06T18:39:28.729Z,16.33
2019-01-06T18:44:55.171Z,16.63
2019-01-06T18:50:21.631Z,21.70
2019-01-06T18:53:09.115Z,18.67
2019-01-06T18:55:56.637Z,22.47
2019-01-06T18:58:44.133Z,25.03
2019-01-06T19:01:31.639Z,18.90
2019-01-06T19:04:19.143Z,22.63
2019-01-06T19:07:06.602Z,25.93
2019-01-06T19:09:54.131Z,21.57
2019-01-06T19:12:41.623Z,16.80
2019-01-06T19:15:29.122Z,24.87
2019-01-06T19:18:16.603Z,17.10
2019-01-06T19:21:04.112Z,21.93
2019-01-06T19:26:42.800Z,30.37
2019-01-06T19:29:30.274Z,19.63
2019-01-06T19:32:17.777Z,23.85
2019-01-06T19:35:05.283Z,18.97
2019-01-06T19:40:41.748Z,20.53
2019-01-06T19:46:08.202Z,27.27
2019-01-06T19:48:55.708Z,23.60
2019-01-06T19:51:43.196Z,21.95
2019-01-06T19:54:30.689Z,21.13
2019-01-06T19:57:18.223Z,18.67
2019-01-06T20:00:05.720Z,22.80
2019-01-06T20:08:21.120Z,22.20
2019-01-06T20:11:08.621Z,24.30
2019-01-06T20:13:56.101Z,18.13
2019-01-06T20:16:43.579Z,15.97
2019-01-06T20:22:10.023Z,20.20
2019-01-06T20:24:57.504Z,16.13
2019-01-06T20:27:44.988Z,23.40
2019-01-06T20:30:32.461Z,22.77
2019-01-06T20:41:36.824Z,26.63
2019-01-06T20:44:24.311Z,21.00
2019-01-06T20:47:11.808Z,22.70
2019-01-06T20:49:59.381Z,22.43
2019-01-06T20:55:25.829Z,23.43
2019-01-06T20:58:13.317Z,19.25
2019-01-06T21:01:00.818Z,23.50
2019-01-06T21:03:48.309Z,20.30
2019-01-06T21:06:35.802Z,19.00
2019-01-06T21:12:31.492Z,17.53
2019-01-06T21:15:19.008Z,15.90
2019-01-06T21:18:06.471Z,20.83
2019-01-06T21:20:53.989Z,13.60
2019-01-06T21:23:41.472Z,26.25
2019-01-06T21:26:28.948Z,26.57
2019-01-06T21:29:16.430Z,30.23
2019-01-06T21:32:03.908Z,21.33
2019-01-06T21:40:19.317Z,22.98
2019-01-06T21:43:06.814Z,28.27
2019-01-06T21:45:54.299Z,24.83
2019-01-06T21:48:41.813Z,23.03
2019-01-06T21:51:29.303Z,26.03
2019-01-06T21:54:16.784Z,24.23
2019-01-06T21:57:04.274Z,16.12
2019-01-06T21:59:51.818Z,22.37
2019-01-06T22:02:39.267Z,20.47
2019-01-06T22:05:26.767Z,24.33
2019-01-06T22:08:14.254Z,18.33
2019-01-06T22:11:01.737Z,23.47
2019-01-06T22:13:49.226Z,15.83
2019-01-06T22:19:15.727Z,18.05
2019-01-06T22:22:03.228Z,25.43
2019-01-06T22:24:50.737Z,15.40
2019-01-06T22:30:17.188Z,24.67
2019-01-06T22:33:04.665Z,25.80
2019-01-06T22:35:52.165Z,23.43
2019-01-06T22:38:39.643Z,27.00
2019-01-06T22:41:27.153Z,13.33
2019-01-06T22:44:14.652Z,17.85
2019-01-06T22:47:02.143Z,17.00
2019-01-06T22:49:49.626Z,24.53
2019-01-06T22:52:37.285Z,13.53
2019-01-06T22:55:24.765Z,17.47
2019-01-06T22:58:12.274Z,17.63
2019-01-06T23:00:59.927Z,26.12
2019-01-06T23:03:47.456Z,15.10
2019-01-06T23:06:34.954Z,18.20
2019-01-06T23:09:22.490Z,22.37
2019-01-06T23:12:09.958Z,15.53
2019-01-06T23:14:57.483Z,9.03
2019-01-06T23:17:44.958Z,17.80
2019-01-06T23:20:32.454Z,11.90
2019-01-06T23:23:19.922Z,17.07
2019-01-06T23:26:07.420Z,14.23
2019-01-06T23:28:54.894Z,16.60
2019-01-06T23:34:21.344Z,14.45
2019-01-06T23:37:08.824Z,19.23
2019-01-06T23:39:56.335Z,15.47
2019-01-06T23:42:43.818Z,12.10
2019-01-06T23:45:31.319Z,15.60
2019-01-06T23:50:57.752Z,16.83
2019-01-06T23:53:45.253Z,20.77
2019-01-06T23:56:32.742Z,24.25
2019-01-06T23:59:20.240Z,15.50
